Main page
METAR-TAF:

METAR-TAF

Airports :

Oxford Airport

Oxford, England

latitude: 51-50-13N, longitude: 1-19-12W, elevation: 82 m

Current weather observation

The report was made 8 hours and 37 minutes ago, at 19:20 UTC
Wind 6 kt from the West
Temperature 12°C
Humidity 94%
Pressure 997 hPa
Visibility 10 km or more
Few clouds at a height of 2500 ft
Broken clouds at a height of 3200 ft
Broken clouds at a height of 4100 ft

METAR: EGTK 231920Z 27006KT 9999 FEW025 BKN032 BKN041 12/11 Q0997

Time: 04:57 (03:57 UTC)

Forecast

The report was made 11 hours and 0 minutes ago, at 16:57 UTC
Forecast valid from 23 at 18 UTC to 23 at 22 UTC
Wind 10 kt from the West
Visibility 10 km or more
Scattered clouds at a height of 1500 ft
Probability 40% :
Temporary
from 23 at 18 UTC to 23 at 22 UTC
Visibility: 4000 m
heavy rain showers

TAF: EGTK 231657Z 2318/2322 28010KT 9999 SCT015 PROB40 TEMPO 2318/2322 4000 +SHRA

Weather observations and forecasts of more than 4000 airports (METAR and TAF reports).

The available stations are represented by yellow and red dots on the map.

Hover mouse over dot to see the name of the station.

Then click to see weather observations and forecasts.

To change the map : click on the green buttons with a black cross to zoom in, on the green button with a dash to zoom out, or on the green arrows for adjacent maps.


METAR-TAF: